Sawyer International Airport
KSAW : now visible

Airfield :











YOU CAN JOIN US ON...

 
LOGIN :

Register | Disclaimer

   EN    FR    IT 

 









Legend :    VFR   Marginal VFR   IFR   Intensive IFR   Very Intensive IFR
Visi :
Ceiling :
>= 8 km
>= 3000ft
5 to 8 km
1000 to 3000 ft
1500m to 5 km
500 to 1000 ft
800 to 1500m
200 to 500 ft
< 800m
< 200 ft
Symbols :   Thunderstorms  Fog  Heavy snow  Heavy precipitations  Wind > 20 kt






- Airport Elevation : 1221 ft


KSAW - Sawyer International

CURRENT METAR :
  • 180958Z AUTO 22003KT 10SM OVC050 17/15 A3000 RMK AO2 T01700147

EXPIRED METARs :
  • 180938Z AUTO 00000KT 10SM OVC050 17/15 A3000 RMK AO2 T01730147
  • 180918Z AUTO 00000KT 10SM BKN050 BKN080 16/14 A3001 RMK AO2 T01600137
  • 180858Z AUTO 00000KT 10SM SCT080 17/14 A3001 RMK AO2 LTG DSNT N T01700142
  • 180838Z AUTO 00000KT 10SM SCT048 SCT060 BKN080 15/14 A3001 RMK AO2 T01520137
  • 180818Z AUTO 00000KT 10SM BKN048 BKN060 OVC100 17/14 A3001 RMK AO2 LTG DSNT N T01710142
  • 180758Z AUTO 00000KT 10SM BKN100 17/14 A3001 RMK AO2 T01740142
  • 180738Z AUTO 00000KT 10SM OVC100 18/14 A3002 RMK AO2 T01770142
  • 180718Z AUTO 00000KT 10SM OVC095 18/14 A3002 RMK AO2 T01760142
  • 180658Z AUTO 00000KT 10SM SCT095 OVC120 18/14 A3003 RMK AO2 LTG DSNT N T01750141

TAF KSAW
Valid from the 18 at 06:00 until the 19 at 06:00 UTC


180520Z 1806/1906 VRB05KT P6SM SCT070
FM181600 23007KT P6SM BKN060
TEMPO 1816/1820 TSRA BKN060CB
FM182300 22006KT P6SM SCT020
KZMP FIR / North America



MET'MAP, your aeronautical weather chart ! - Copyright ORBIFLY December 2007 - Disclaimer

ORBIFLY MET'MAP TEAM :

Programming & Development : Alexandra Zaïnal
Original concept : Baudouin d'Aumeries
Technical & hardware support : Manuel Goepfert
Assistance : Marc-Olivier Méhu




SOURCES & CREDITS :

   NOAA       Earth
Advisory